Time;durP1;ratioP1;P1;durP2;ratioP2;P2;SDS_P1;SDS_P2;PMS_P1;PMS_P2;Temp;Humidity;BMP_temperature;BMP_pressure;BME280_temperature;BME280_humidity;BME280_pressure;Samples;Min_cycle;Max_cycle;Signal;HPM_P1;HPM_P2
2022/06/09 00:00:51;;;;;;;4.13;2.80;;;;;;;;;;4989390;28;20470;-67
2022/06/09 00:03:23;;;;;;;4.97;3.42;;;;;;;;;;4987357;28;20490;-67
2022/06/09 00:05:49;;;;;;;3.35;2.70;;;;;;;;;;4988324;28;20331;-68
2022/06/09 00:08:15;;;;;;;5.18;3.10;;;;;;;;;;4987497;28;20055;-67
2022/06/09 00:10:43;;;;;;;3.40;2.65;;;;;;;;;;4987439;28;20398;-67
2022/06/09 00:13:09;;;;;;;6.82;3.58;;;;;;;;;;4987743;28;20431;-67
2022/06/09 00:15:34;;;;;;;3.78;2.78;;;;;;;;;;4988089;28;20470;-67
2022/06/09 00:17:59;;;;;;;4.25;2.58;;;;;;;;;;4989387;28;20364;-68
2022/06/09 00:20:25;;;;;;;3.92;2.90;;;;;;;;;;4988776;28;20385;-67
2022/06/09 00:22:50;;;;;;;3.45;2.50;;;;;;;;;;4987439;28;20535;-67
2022/06/09 00:25:16;;;;;;;4.40;2.90;;;;;;;;;;4987502;28;20363;-67
2022/06/09 00:27:41;;;;;;;3.92;2.83;;;;;;;;;;4988546;28;20448;-67
2022/06/09 00:30:09;;;;;;;4.28;3.25;;;;;;;;;;4987623;28;20416;-68
2022/06/09 00:32:35;;;;;;;5.07;2.97;;;;;;;;;;4970302;28;20381;-68
2022/06/09 00:35:00;;;;;;;5.13;2.85;;;;;;;;;;4989787;28;20613;-68
2022/06/09 00:37:25;;;;;;;5.18;2.90;;;;;;;;;;4989271;28;20455;-68
2022/06/09 00:39:51;;;;;;;2.95;2.22;;;;;;;;;;4987403;28;20051;-68
2022/06/09 00:42:16;;;;;;;4.35;2.97;;;;;;;;;;4987186;28;20535;-67
2022/06/09 00:44:42;;;;;;;3.10;2.72;;;;;;;;;;4987243;28;20331;-68
2022/06/09 00:47:18;;;;;;;4.00;2.67;;;;;;;;;;4988315;28;20331;-67
2022/06/09 00:50:04;;;;;;;3.97;2.50;;;;;;;;;;4988523;28;20491;-68
2022/06/09 00:52:34;;;;;;;3.22;2.90;;;;;;;;;;4987454;28;20454;-68
2022/06/09 00:55:03;;;;;;;4.80;2.60;;;;;;;;;;4986807;28;20448;-67
2022/06/09 00:57:34;;;;;;;3.67;2.90;;;;;;;;;;4973952;28;20400;-67
2022/06/09 01:00:06;;;;;;;3.50;2.70;;;;;;;;;;4989532;28;20398;-66
2022/06/09 01:02:32;;;;;;;4.03;2.97;;;;;;;;;;4991565;28;20025;-68
2022/06/09 01:05:01;;;;;;;3.85;2.90;;;;;;;;;;4991204;28;20381;-67
2022/06/09 01:07:30;;;;;;;3.40;2.55;;;;;;;;;;4991876;28;20462;-68
2022/06/09 01:09:56;;;;;;;3.58;2.72;;;;;;;;;;4990544;28;20503;-68
2022/06/09 01:12:29;;;;;;;4.47;2.60;;;;;;;;;;4992115;28;20334;-67
2022/06/09 01:14:59;;;;;;;3.78;2.83;;;;;;;;;;4990666;28;20420;-68
2022/06/09 01:17:37;;;;;;;4.72;2.92;;;;;;;;;;4990789;28;20463;-67
2022/06/09 01:20:07;;;;;;;3.45;2.80;;;;;;;;;;4993562;28;20293;-69
2022/06/09 01:22:48;;;;;;;3.55;2.70;;;;;;;;;;4992051;28;20444;-68
2022/06/09 01:25:38;;;;;;;3.40;3.00;;;;;;;;;;4991789;28;20448;-70
2022/06/09 01:28:11;;;;;;;3.70;2.72;;;;;;;;;;4992044;28;20455;-68
2022/06/09 01:30:43;;;;;;;3.88;2.53;;;;;;;;;;4990447;28;20388;-72
2022/06/09 01:33:15;;;;;;;3.97;2.88;;;;;;;;;;4991407;28;20432;-71
2022/06/09 01:35:50;;;;;;;4.22;2.67;;;;;;;;;;4991673;28;20025;-71
2022/06/09 01:38:16;;;;;;;3.63;2.03;;;;;;;;;;4990465;28;20435;-71
2022/06/09 01:40:41;;;;;;;5.18;2.78;;;;;;;;;;4991689;28;20380;-72
2022/06/09 01:43:07;;;;;;;4.03;2.80;;;;;;;;;;4993369;28;20033;-71
2022/06/09 01:45:57;;;;;;;3.45;2.60;;;;;;;;;;4989816;28;20415;-72
2022/06/09 01:48:25;;;;;;;5.30;2.67;;;;;;;;;;4991728;28;20530;-72
2022/06/09 01:51:13;;;;;;;2.65;2.05;;;;;;;;;;4989478;28;20221;-71
2022/06/09 01:53:46;;;;;;;4.38;2.63;;;;;;;;;;4990079;28;20329;-72
2022/06/09 01:56:25;;;;;;;3.63;2.50;;;;;;;;;;4990051;28;20413;-71
2022/06/09 01:58:54;;;;;;;;;;;;;;;;;;4992413;28;20435;-71
2022/06/09 02:01:26;;;;;;;2.85;2.10;;;;;;;;;;4990701;28;20409;-71
2022/06/09 02:03:55;;;;;;;6.30;2.90;;;;;;;;;;4990151;28;20047;-71
2022/06/09 02:06:20;;;;;;;;;;;;;;;;;;4990341;28;20404;-72
2022/06/09 02:08:46;;;;;;;5.90;2.60;;;;;;;;;;4988651;28;20259;-71
2022/06/09 02:11:13;;;;;;;3.47;2.40;;;;;;;;;;4989376;28;20730;-71
2022/06/09 02:13:47;;;;;;;4.00;2.35;;;;;;;;;;4989542;28;20450;-71
2022/06/09 02:16:19;;;;;;;2.67;1.85;;;;;;;;;;4989360;28;20499;-71
2022/06/09 02:18:47;;;;;;;3.60;2.47;;;;;;;;;;4989416;28;20047;-71
2022/06/09 02:21:16;;;;;;;3.92;2.63;;;;;;;;;;4989320;28;20060;-71
2022/06/09 02:23:43;;;;;;;5.03;2.60;;;;;;;;;;4990404;28;20021;-72
2022/06/09 02:26:08;;;;;;;3.38;2.28;;;;;;;;;;4991100;28;20051;-72
2022/06/09 02:28:34;;;;;;;3.60;2.42;;;;;;;;;;4990148;28;20569;-71
2022/06/09 02:30:59;;;;;;;3.88;2.50;;;;;;;;;;4990876;28;20313;-72
2022/06/09 02:33:25;;;;;;;3.22;2.13;;;;;;;;;;4989520;28;20041;-72
2022/06/09 02:35:51;;;;;;;6.28;2.35;;;;;;;;;;4990831;28;20043;-71
2022/06/09 02:38:17;;;;;;;2.63;2.20;;;;;;;;;;4989063;28;20313;-71
2022/06/09 02:40:43;;;;;;;2.45;1.98;;;;;;;;;;4990632;28;20460;-71
2022/06/09 02:43:08;;;;;;;3.22;1.80;;;;;;;;;;4990358;28;20505;-72
2022/06/09 02:45:34;;;;;;;3.72;2.40;;;;;;;;;;4990404;28;20494;-72
2022/06/09 02:48:01;;;;;;;3.78;2.38;;;;;;;;;;4990787;28;20320;-72
2022/06/09 02:50:27;;;;;;;2.88;2.00;;;;;;;;;;4988383;28;20463;-72
2022/06/09 02:52:52;;;;;;;2.97;2.30;;;;;;;;;;4991550;28;20446;-72
2022/06/09 02:55:18;;;;;;;2.60;2.00;;;;;;;;;;4989727;28;20428;-71
2022/06/09 02:57:44;;;;;;;2.28;1.98;;;;;;;;;;4990183;28;20456;-71
2022/06/09 03:00:14;;;;;;;2.95;2.15;;;;;;;;;;4990150;28;20024;-71
2022/06/09 03:02:40;;;;;;;2.33;1.80;;;;;;;;;;4990010;28;20390;-71
2022/06/09 03:05:06;;;;;;;4.28;2.17;;;;;;;;;;4988771;28;20390;-72
2022/06/09 03:07:31;;;;;;;3.60;2.20;;;;;;;;;;4990290;28;20095;-72
2022/06/09 03:09:57;;;;;;;4.00;2.22;;;;;;;;;;4990238;28;20309;-72
2022/06/09 03:12:22;;;;;;;2.53;1.80;;;;;;;;;;4989936;28;20032;-72
2022/06/09 03:14:47;;;;;;;3.17;1.92;;;;;;;;;;5005502;28;20491;-72
2022/06/09 03:17:13;;;;;;;2.45;1.77;;;;;;;;;;4989593;28;20393;-72
2022/06/09 03:19:39;;;;;;;2.72;1.90;;;;;;;;;;4987984;28;20029;-72
2022/06/09 03:22:04;;;;;;;2.20;1.83;;;;;;;;;;4988508;28;20435;-72
2022/06/09 03:24:30;;;;;;;2.72;1.95;;;;;;;;;;4989813;28;20561;-71
2022/06/09 03:26:56;;;;;;;3.42;2.13;;;;;;;;;;4990690;28;20448;-71
2022/06/09 03:29:22;;;;;;;2.70;2.00;;;;;;;;;;4988242;28;20412;-73
2022/06/09 03:31:47;;;;;;;2.13;1.70;;;;;;;;;;4989885;28;20102;-74
2022/06/09 03:34:13;;;;;;;2.25;1.73;;;;;;;;;;4990477;28;20454;-74
2022/06/09 03:36:39;;;;;;;2.53;1.83;;;;;;;;;;4989361;28;20337;-72
2022/06/09 03:39:04;;;;;;;4.45;1.73;;;;;;;;;;4988460;28;20459;-71
2022/06/09 03:41:30;;;;;;;2.20;2.00;;;;;;;;;;4971548;28;20518;-71
2022/06/09 03:43:55;;;;;;;3.95;1.92;;;;;;;;;;4989074;28;20340;-71
2022/06/09 03:46:21;;;;;;;3.13;1.80;;;;;;;;;;4990229;28;20345;-71
2022/06/09 03:48:46;;;;;;;2.40;1.70;;;;;;;;;;4990053;28;20076;-72
2022/06/09 03:51:12;;;;;;;2.50;1.73;;;;;;;;;;4987085;28;20476;-72
2022/06/09 03:53:39;;;;;;;2.50;1.63;;;;;;;;;;4987871;28;20415;-72
2022/06/09 03:56:06;;;;;;;2.15;1.65;;;;;;;;;;4989726;28;20419;-72
2022/06/09 03:58:31;;;;;;;2.40;1.73;;;;;;;;;;4989150;28;20390;-71
2022/06/09 04:00:57;;;;;;;2.05;1.67;;;;;;;;;;4989261;28;20411;-72
2022/06/09 04:03:22;;;;;;;2.35;1.58;;;;;;;;;;4989751;28;20025;-71
2022/06/09 04:05:47;;;;;;;3.88;1.80;;;;;;;;;;4988885;28;20411;-72
2022/06/09 04:08:13;;;;;;;2.78;2.00;;;;;;;;;;4988961;28;20399;-71
2022/06/09 04:10:38;;;;;;;2.03;1.60;;;;;;;;;;4988920;28;20390;-72
2022/06/09 04:13:04;;;;;;;3.72;1.50;;;;;;;;;;4989356;28;20069;-72
2022/06/09 04:15:30;;;;;;;2.50;1.67;;;;;;;;;;4988839;28;20371;-71
2022/06/09 04:17:56;;;;;;;2.00;1.50;;;;;;;;;;4989619;28;20339;-72
2022/06/09 04:20:24;;;;;;;2.80;1.70;;;;;;;;;;4987894;28;20353;-71
2022/06/09 04:22:50;;;;;;;2.00;1.70;;;;;;;;;;4988757;28;20043;-71
2022/06/09 04:25:17;;;;;;;2.90;1.75;;;;;;;;;;4989060;28;20416;-71
2022/06/09 04:27:42;;;;;;;2.80;2.00;;;;;;;;;;4987754;28;20075;-71
2022/06/09 04:30:09;;;;;;;3.42;1.90;;;;;;;;;;5003967;28;20108;-71
2022/06/09 04:32:34;;;;;;;2.35;1.67;;;;;;;;;;4992795;28;20526;-71
2022/06/09 04:34:59;;;;;;;1.83;1.40;;;;;;;;;;4992926;28;20458;-72
2022/06/09 04:37:59;;;;;;;2.38;1.67;;;;;;;;;;4993201;28;20336;-72
2022/06/09 04:40:11;;;;;;;2.00;1.45;;;;;;;;;;4992734;28;20448;-71
2022/06/09 04:42:36;;;;;;;2.05;1.40;;;;;;;;;;4990786;28;20440;-72
2022/06/09 04:45:02;;;;;;;2.92;1.95;;;;;;;;;;4974846;28;20317;-72
2022/06/09 04:47:28;;;;;;;2.78;1.38;;;;;;;;;;4991139;28;20481;-72
2022/06/09 04:49:53;;;;;;;7.38;1.60;;;;;;;;;;4992334;28;20487;-72
2022/06/09 04:52:18;;;;;;;2.03;1.50;;;;;;;;;;4993050;28;20408;-71
2022/06/09 04:54:44;;;;;;;4.93;1.85;;;;;;;;;;4992457;28;20438;-72
2022/06/09 04:57:09;;;;;;;2.00;1.48;;;;;;;;;;4992463;28;20024;-72
2022/06/09 04:59:34;;;;;;;4.40;1.90;;;;;;;;;;4991284;28;20546;-71
2022/06/09 05:02:00;;;;;;;1.63;1.48;;;;;;;;;;4992547;28;20471;-71
2022/06/09 05:04:25;;;;;;;1.85;1.30;;;;;;;;;;4992443;28;20029;-72
2022/06/09 05:06:50;;;;;;;1.85;1.35;;;;;;;;;;5007189;28;20386;-71
2022/06/09 05:09:17;;;;;;;2.28;1.60;;;;;;;;;;4993132;28;20355;-71
2022/06/09 05:11:42;;;;;;;1.67;1.38;;;;;;;;;;4991050;28;20059;-71
2022/06/09 05:14:07;;;;;;;1.70;1.40;;;;;;;;;;4992229;28;20029;-71
2022/06/09 05:16:33;;;;;;;3.42;1.85;;;;;;;;;;4991678;28;20391;-71
2022/06/09 05:18:58;;;;;;;2.42;1.75;;;;;;;;;;4992091;28;20033;-71
2022/06/09 05:21:24;;;;;;;2.38;1.75;;;;;;;;;;4991033;28;20501;-71
2022/06/09 05:23:49;;;;;;;2.33;1.40;;;;;;;;;;4992055;28;20025;-72
2022/06/09 05:26:16;;;;;;;1.33;1.20;;;;;;;;;;4991897;28;20439;-72
2022/06/09 05:28:41;;;;;;;2.17;1.45;;;;;;;;;;4992229;28;20408;-71
2022/06/09 05:31:06;;;;;;;2.15;1.33;;;;;;;;;;4992545;28;20510;-72
2022/06/09 05:33:32;;;;;;;2.47;1.58;;;;;;;;;;4991905;28;20455;-72
2022/06/09 05:35:57;;;;;;;3.00;1.15;;;;;;;;;;4990689;28;20515;-72
2022/06/09 05:46:37;;;;;;;3.28;1.90;;;;;;;;;;4991508;28;20375;-71
2022/06/09 05:49:03;;;;;;;3.55;1.63;;;;;;;;;;4973475;28;20391;-71
2022/06/09 05:51:30;;;;;;;2.78;1.38;;;;;;;;;;4989287;28;20363;-71
2022/06/09 05:53:55;;;;;;;2.25;1.60;;;;;;;;;;4990058;28;20456;-70
2022/06/09 05:56:20;;;;;;;1.83;1.20;;;;;;;;;;4991063;28;20394;-72
2022/06/09 05:58:46;;;;;;;1.80;1.45;;;;;;;;;;4992656;28;20461;-71
2022/06/09 06:01:12;;;;;;;2.22;1.23;;;;;;;;;;4989439;28;20462;-71
2022/06/09 06:03:39;;;;;;;1.42;1.15;;;;;;;;;;4989912;28;20431;-71
2022/06/09 06:08:49;;;;;;;1.60;1.33;;;;;;;;;;4991804;28;20422;-70
2022/06/09 06:11:15;;;;;;;1.67;1.38;;;;;;;;;;4989759;28;20343;-70
2022/06/09 06:13:41;;;;;;;1.83;1.40;;;;;;;;;;4991926;28;20347;-71
2022/06/09 06:16:06;;;;;;;1.63;1.20;;;;;;;;;;4991315;28;20462;-71
2022/06/09 06:18:31;;;;;;;1.40;1.30;;;;;;;;;;4990733;28;20344;-70
2022/06/09 06:20:57;;;;;;;2.70;1.70;;;;;;;;;;5006812;28;20348;-71
2022/06/09 06:23:23;;;;;;;1.58;1.48;;;;;;;;;;4989273;28;20458;-70
2022/06/09 06:25:48;;;;;;;1.40;1.27;;;;;;;;;;4991279;28;20029;-70
2022/06/09 06:28:14;;;;;;;2.33;1.45;;;;;;;;;;4978223;28;20494;-70
2022/06/09 06:30:39;;;;;;;1.73;1.40;;;;;;;;;;4990126;28;20463;-70
2022/06/09 06:33:04;;;;;;;2.17;1.38;;;;;;;;;;5005186;28;20473;-70
2022/06/09 06:35:30;;;;;;;2.50;1.48;;;;;;;;;;4991457;28;20321;-69
2022/06/09 06:37:55;;;;;;;1.83;1.38;;;;;;;;;;4990577;28;20511;-71
2022/06/09 06:40:21;;;;;;;1.85;1.30;;;;;;;;;;4990509;28;20391;-71
2022/06/09 06:42:46;;;;;;;2.38;1.63;;;;;;;;;;4990881;28;20320;-69
2022/06/09 06:45:13;;;;;;;2.15;1.30;;;;;;;;;;4990697;28;20420;-70
2022/06/09 06:47:39;;;;;;;1.73;1.30;;;;;;;;;;4988851;28;20186;-69
2022/06/09 06:50:06;;;;;;;1.90;1.50;;;;;;;;;;4972076;28;20472;-70
2022/06/09 06:52:31;;;;;;;1.83;1.40;;;;;;;;;;4990395;28;20476;-70
2022/06/09 06:54:56;;;;;;;1.55;1.27;;;;;;;;;;4988901;28;20483;-69
2022/06/09 06:57:23;;;;;;;1.88;1.27;;;;;;;;;;4990479;28;20325;-69
2022/06/09 06:59:48;;;;;;;2.13;1.30;;;;;;;;;;4990777;28;20352;-69
2022/06/09 07:02:14;;;;;;;1.90;1.60;;;;;;;;;;4990144;28;20631;-69
2022/06/09 07:04:39;;;;;;;2.83;1.38;;;;;;;;;;4990496;28;20379;-69
2022/06/09 07:07:04;;;;;;;1.67;1.38;;;;;;;;;;4990419;28;20423;-69
2022/06/09 07:09:30;;;;;;;1.20;1.10;;;;;;;;;;4990082;28;20482;-69
2022/06/09 07:11:55;;;;;;;3.50;1.88;;;;;;;;;;4989744;28;20420;-70
2022/06/09 07:14:21;;;;;;;2.03;1.58;;;;;;;;;;4991080;28;20503;-68
2022/06/09 07:16:46;;;;;;;2.00;1.58;;;;;;;;;;4988487;28;20506;-69
2022/06/09 07:19:13;;;;;;;1.75;1.38;;;;;;;;;;4991319;28;20356;-69
2022/06/09 07:21:38;;;;;;;1.92;1.38;;;;;;;;;;4989820;28;20340;-69
2022/06/09 07:24:04;;;;;;;2.20;1.40;;;;;;;;;;4989672;28;20418;-68
2022/06/09 07:26:29;;;;;;;2.00;1.60;;;;;;;;;;4989908;28;20348;-68
2022/06/09 07:28:55;;;;;;;1.73;1.50;;;;;;;;;;4989651;28;20441;-69
2022/06/09 07:31:20;;;;;;;2.17;1.42;;;;;;;;;;4989839;28;20455;-69
2022/06/09 07:33:46;;;;;;;2.38;1.40;;;;;;;;;;4988168;28;20451;-68
2022/06/09 07:36:15;;;;;;;3.30;1.58;;;;;;;;;;4989510;28;20419;-69
2022/06/09 07:38:41;;;;;;;1.30;1.20;;;;;;;;;;4988519;28;20378;-68
2022/06/09 07:41:07;;;;;;;1.55;1.20;;;;;;;;;;4989106;28;20379;-69
2022/06/09 07:43:32;;;;;;;2.03;1.33;;;;;;;;;;4988329;28;20418;-68
2022/06/09 07:45:58;;;;;;;1.48;1.33;;;;;;;;;;4989753;28;20116;-69
2022/06/09 07:48:23;;;;;;;1.85;1.58;;;;;;;;;;4988085;28;20321;-68
2022/06/09 07:50:50;;;;;;;1.73;1.35;;;;;;;;;;4987205;28;20511;-69
2022/06/09 07:53:17;;;;;;;1.83;1.48;;;;;;;;;;4988480;28;20440;-69
2022/06/09 07:55:43;;;;;;;1.90;1.33;;;;;;;;;;4990900;28;20489;-69
2022/06/09 07:58:09;;;;;;;1.48;1.30;;;;;;;;;;4987786;28;20363;-69
2022/06/09 08:00:34;;;;;;;1.77;1.38;;;;;;;;;;4987878;28;20029;-68
2022/06/09 08:03:03;;;;;;;1.70;1.48;;;;;;;;;;4987768;28;20324;-68
2022/06/09 08:05:29;;;;;;;;;;;;;;;;;;4988847;28;20343;-68
2022/06/09 08:07:55;;;;;;;1.67;1.33;;;;;;;;;;4989598;28;20309;-69
2022/06/09 08:10:22;;;;;;;1.23;1.08;;;;;;;;;;4988863;28;20417;-69
2022/06/09 08:12:51;;;;;;;6.03;1.88;;;;;;;;;;4988784;28;20339;-69
2022/06/09 08:15:17;;;;;;;;;;;;;;;;;;4989424;28;20446;-68
2022/06/09 08:17:43;;;;;;;1.77;1.23;;;;;;;;;;4989135;28;20287;-68
2022/06/09 08:20:10;;;;;;;2.92;1.90;;;;;;;;;;4987078;28;20033;-68
2022/06/09 08:22:40;;;;;;;1.90;1.50;;;;;;;;;;4989644;28;20374;-68
2022/06/09 08:25:07;;;;;;;1.73;1.25;;;;;;;;;;4988813;28;20503;-68
2022/06/09 08:27:33;;;;;;;1.83;1.40;;;;;;;;;;4988987;28;20358;-68
2022/06/09 08:29:58;;;;;;;4.00;2.03;;;;;;;;;;4988660;28;20037;-68
2022/06/09 08:32:24;;;;;;;3.15;1.85;;;;;;;;;;4989090;28;20033;-69
2022/06/09 08:34:49;;;;;;;1.92;1.40;;;;;;;;;;4989351;28;20451;-68
2022/06/09 08:37:14;;;;;;;1.92;1.45;;;;;;;;;;4989011;28;20439;-68
2022/06/09 08:39:40;;;;;;;2.15;1.50;;;;;;;;;;4988956;28;20459;-68
2022/06/09 08:42:14;;;;;;;1.95;1.75;;;;;;;;;;5003730;28;20451;-69
2022/06/09 08:44:44;;;;;;;1.98;1.67;;;;;;;;;;4988753;28;20435;-68
2022/06/09 08:47:22;;;;;;;1.80;1.45;;;;;;;;;;4987463;28;20021;-68
2022/06/09 08:49:47;;;;;;;1.50;1.30;;;;;;;;;;4988466;28;20471;-68
2022/06/09 08:52:23;;;;;;;1.92;1.70;;;;;;;;;;4989035;28;20424;-68
2022/06/09 08:54:49;;;;;;;2.17;1.60;;;;;;;;;;4987113;28;20351;-68
2022/06/09 08:57:33;;;;;;;2.22;1.63;;;;;;;;;;4987236;28;20328;-68
2022/06/09 08:59:58;;;;;;;1.63;1.50;;;;;;;;;;4988532;28;20542;-67
2022/06/09 09:02:35;;;;;;;1.58;1.42;;;;;;;;;;4987066;28;20444;-68
2022/06/09 09:05:26;;;;;;;1.42;1.30;;;;;;;;;;4987190;28;20025;-67
2022/06/09 09:07:55;;;;;;;2.28;1.55;;;;;;;;;;4986566;28;20439;-67
2022/06/09 09:10:23;;;;;;;;;;;;;;;;;;4987714;28;20383;-68
2022/06/09 09:13:07;;;;;;;2.42;1.40;;;;;;;;;;4988258;28;20248;-67
2022/06/09 09:15:43;;;;;;;2.72;1.73;;;;;;;;;;4988979;28;20409;-67
2022/06/09 09:18:30;;;;;;;3.28;1.45;;;;;;;;;;4989862;28;20025;-67
2022/06/09 09:21:10;;;;;;;1.85;1.42;;;;;;;;;;4991823;28;20501;-68
2022/06/09 09:23:41;;;;;;;2.55;2.00;;;;;;;;;;4990668;28;20328;-67
2022/06/09 09:26:10;;;;;;;2.05;1.70;;;;;;;;;;4992192;28;20422;-68
2022/06/09 09:28:45;;;;;;;;;;;;;;;;;;4991119;28;20400;-67
2022/06/09 09:31:25;;;;;;;2.00;1.48;;;;;;;;;;4990604;28;20041;-67
2022/06/09 09:33:51;;;;;;;2.28;1.80;;;;;;;;;;4992973;28;20423;-67
2022/06/09 09:36:26;;;;;;;2.47;1.63;;;;;;;;;;4990331;28;20329;-67
2022/06/09 09:39:41;;;;;;;4.93;1.90;;;;;;;;;;4990221;28;20391;-68
2022/06/09 09:42:13;;;;;;;1.80;1.60;;;;;;;;;;4950089;28;20337;-68
2022/06/09 09:44:38;;;;;;;2.00;1.50;;;;;;;;;;4949731;28;20096;-68
2022/06/09 09:47:04;;;;;;;1.65;1.55;;;;;;;;;;4973799;28;20037;-66
2022/06/09 09:49:40;;;;;;;2.85;1.55;;;;;;;;;;4991091;28;20333;-67
2022/06/09 09:52:29;;;;;;;1.73;1.52;;;;;;;;;;4991056;28;20429;-67
2022/06/09 09:54:54;;;;;;;2.33;1.60;;;;;;;;;;4989735;28;20378;-68
2022/06/09 09:57:21;;;;;;;2.83;2.00;;;;;;;;;;4990033;28;20380;-67
2022/06/09 09:59:48;;;;;;;1.80;1.55;;;;;;;;;;4991676;28;20360;-67
2022/06/09 10:08:41;;;;;;;2.15;1.70;;;;;;;;;;4991020;28;20066;-67
2022/06/09 10:13:54;;;;;;;2.15;1.65;;;;;;;;;;4990848;28;20590;-66
2022/06/09 10:16:20;;;;;;;1.85;1.55;;;;;;;;;;4989904;28;20436;-67
2022/06/09 10:18:51;;;;;;;2.75;1.85;;;;;;;;;;4989541;28;20439;-66
2022/06/09 10:21:16;;;;;;;2.78;1.92;;;;;;;;;;4989620;28;20424;-67
2022/06/09 10:23:54;;;;;;;2.20;1.60;;;;;;;;;;4990872;28;20387;-66
2022/06/09 10:26:39;;;;;;;1.98;1.70;;;;;;;;;;4991020;28;20132;-66
2022/06/09 10:29:16;;;;;;;2.70;1.52;;;;;;;;;;4990025;28;20051;-67
2022/06/09 10:32:03;;;;;;;1.90;1.70;;;;;;;;;;4990484;28;20452;-67
2022/06/09 10:34:45;;;;;;;2.20;1.80;;;;;;;;;;4989053;28;20133;-66
2022/06/09 10:37:25;;;;;;;2.40;1.60;;;;;;;;;;4991299;28;20313;-66
2022/06/09 10:40:15;;;;;;;2.47;1.88;;;;;;;;;;4990605;28;20076;-66
2022/06/09 10:42:40;;;;;;;2.33;1.90;;;;;;;;;;4991246;28;20469;-66
2022/06/09 10:45:25;;;;;;;2.17;1.88;;;;;;;;;;4990196;28;20472;-67
2022/06/09 10:56:30;;;;;;;2.97;1.70;;;;;;;;;;4988992;28;20375;-66
2022/06/09 10:59:19;;;;;;;4.07;1.88;;;;;;;;;;4989206;28;20374;-66
2022/06/09 11:01:44;;;;;;;;;;;;;;;;;;4986234;28;20382;-66
2022/06/09 11:04:16;;;;;;;3.30;2.08;;;;;;;;;;4989133;28;20293;-66
2022/06/09 11:06:56;;;;;;;2.08;1.65;;;;;;;;;;4988586;28;20447;-66
2022/06/09 11:09:36;;;;;;;2.05;1.55;;;;;;;;;;4988323;28;20379;-67
2022/06/09 11:12:29;;;;;;;2.60;1.90;;;;;;;;;;4988369;28;20432;-66
2022/06/09 11:15:18;;;;;;;2.03;1.65;;;;;;;;;;4988433;28;20095;-66
2022/06/09 11:17:52;;;;;;;;;;;;;;;;;;4983126;28;20040;-66
2022/06/09 11:20:43;;;;;;;3.25;1.70;;;;;;;;;;4988118;28;19978;-66
2022/06/09 11:23:44;;;;;;;1.80;1.58;;;;;;;;;;4991655;28;20469;-66
2022/06/09 11:26:33;;;;;;;2.42;1.48;;;;;;;;;;4988381;28;20494;-66
2022/06/09 11:29:14;;;;;;;;;;;;;;;;;;4982881;28;20037;-67
2022/06/09 11:32:11;;;;;;;2.30;1.73;;;;;;;;;;4989528;28;19912;-67
2022/06/09 11:34:54;;;;;;;1.80;1.50;;;;;;;;;;4990920;28;20045;-67
2022/06/09 11:37:51;;;;;;;2.50;1.58;;;;;;;;;;4988176;28;20420;-67
2022/06/09 11:40:26;;;;;;;2.28;1.63;;;;;;;;;;4989298;28;20436;-67
2022/06/09 11:42:58;;;;;;;1.98;1.38;;;;;;;;;;4988160;28;20024;-67
2022/06/09 11:45:46;;;;;;;2.20;1.65;;;;;;;;;;4989800;28;20423;-68
2022/06/09 11:48:21;;;;;;;5.07;1.50;;;;;;;;;;4989042;28;20340;-67
2022/06/09 11:50:47;;;;;;;1.65;1.50;;;;;;;;;;4988907;28;20060;-67
2022/06/09 11:53:19;;;;;;;2.78;1.60;;;;;;;;;;4989490;28;20056;-67
2022/06/09 11:56:00;;;;;;;2.42;1.60;;;;;;;;;;4987943;28;20432;-67
2022/06/09 11:58:38;;;;;;;1.63;1.33;;;;;;;;;;4987990;28;20508;-66
2022/06/09 12:01:25;;;;;;;1.60;1.40;;;;;;;;;;4989004;28;20467;-67
2022/06/09 12:07:36;;;;;;;2.00;1.40;;;;;;;;;;4989155;28;20048;-66
2022/06/09 12:10:39;;;;;;;2.17;1.60;;;;;;;;;;4987963;28;20340;-67
2022/06/09 12:13:14;;;;;;;1.35;1.13;;;;;;;;;;4988891;28;20497;-67
2022/06/09 12:15:53;;;;;;;2.03;1.60;;;;;;;;;;4989363;28;20079;-67
2022/06/09 12:18:37;;;;;;;2.67;1.50;;;;;;;;;;4987733;28;20347;-67
2022/06/09 12:21:09;;;;;;;1.80;1.42;;;;;;;;;;4987515;28;20090;-67
2022/06/09 12:23:49;;;;;;;1.75;1.50;;;;;;;;;;4987623;28;20026;-67
2022/06/09 12:26:16;;;;;;;1.27;1.10;;;;;;;;;;4988829;28;20424;-67
2022/06/09 12:28:57;;;;;;;1.88;1.50;;;;;;;;;;4988932;28;20424;-67
2022/06/09 12:31:31;;;;;;;1.83;1.40;;;;;;;;;;4989033;28;20021;-67
2022/06/09 12:34:02;;;;;;;2.17;1.70;;;;;;;;;;4987241;28;20424;-67
2022/06/09 12:36:36;;;;;;;1.98;1.50;;;;;;;;;;4987427;28;20044;-67
2022/06/09 12:39:04;;;;;;;1.90;1.60;;;;;;;;;;4987481;28;20470;-67
2022/06/09 12:41:41;;;;;;;2.70;1.95;;;;;;;;;;4988832;28;20343;-67
2022/06/09 12:44:25;;;;;;;4.95;1.58;;;;;;;;;;4987891;28;20371;-67
2022/06/09 12:47:01;;;;;;;3.65;1.50;;;;;;;;;;4987347;28;20509;-66
2022/06/09 12:49:33;;;;;;;2.10;1.90;;;;;;;;;;4987200;28;20033;-66
2022/06/09 12:51:59;;;;;;;2.15;1.67;;;;;;;;;;4988481;28;20566;-66
2022/06/09 12:54:27;;;;;;;2.78;1.92;;;;;;;;;;4991242;28;20398;-66
2022/06/09 12:57:06;;;;;;;2.00;1.65;;;;;;;;;;4992744;28;20309;-68
2022/06/09 12:59:35;;;;;;;2.38;1.75;;;;;;;;;;4991112;28;20447;-67
2022/06/09 13:02:28;;;;;;;2.05;1.52;;;;;;;;;;4991438;28;20087;-67
2022/06/09 13:05:01;;;;;;;2.08;1.75;;;;;;;;;;4991205;28;20414;-67
2022/06/09 13:07:34;;;;;;;1.58;1.40;;;;;;;;;;4991266;28;20037;-66
2022/06/09 13:10:08;;;;;;;2.20;1.73;;;;;;;;;;4991818;28;20519;-67
2022/06/09 13:12:51;;;;;;;2.13;1.70;;;;;;;;;;4993201;28;20435;-67
2022/06/09 13:15:25;;;;;;;2.10;1.75;;;;;;;;;;4991198;28;20397;-67
2022/06/09 13:17:51;;;;;;;2.63;1.80;;;;;;;;;;4992189;28;20341;-67
2022/06/09 13:20:22;;;;;;;2.58;1.58;;;;;;;;;;4992172;28;20047;-66
2022/06/09 13:22:48;;;;;;;2.72;1.77;;;;;;;;;;4991551;28;20371;-66
2022/06/09 13:25:18;;;;;;;2.55;2.00;;;;;;;;;;4990512;28;20468;-67
2022/06/09 13:27:45;;;;;;;2.58;1.73;;;;;;;;;;4990824;28;20464;-66
2022/06/09 13:30:29;;;;;;;1.92;1.70;;;;;;;;;;4990876;28;20395;-67
2022/06/09 13:32:54;;;;;;;1.95;1.70;;;;;;;;;;4991911;28;20067;-67
2022/06/09 13:35:40;;;;;;;2.80;1.90;;;;;;;;;;4990560;28;20424;-67
2022/06/09 13:38:24;;;;;;;3.78;2.08;;;;;;;;;;4990394;28;20462;-66
2022/06/09 13:40:53;;;;;;;2.22;1.92;;;;;;;;;;4990696;28;20404;-66
2022/06/09 13:43:21;;;;;;;;;;;;;;;;;;4990855;28;20483;-67
2022/06/09 13:45:54;;;;;;;3.10;2.17;;;;;;;;;;4990457;28;20318;-66
2022/06/09 13:48:23;;;;;;;2.00;1.80;;;;;;;;;;4991576;28;20332;-66
2022/06/09 13:50:50;;;;;;;2.40;2.03;;;;;;;;;;4991509;28;20067;-67
2022/06/09 13:53:19;;;;;;;5.50;1.67;;;;;;;;;;4990328;28;20459;-66
2022/06/09 13:55:45;;;;;;;2.20;1.90;;;;;;;;;;4991616;28;20442;-67
2022/06/09 13:58:11;;;;;;;2.58;2.17;;;;;;;;;;4991530;28;20301;-67
2022/06/09 14:00:56;;;;;;;2.17;1.77;;;;;;;;;;4989804;28;20060;-66
2022/06/09 14:03:31;;;;;;;3.72;2.70;;;;;;;;;;4988595;28;20436;-66
2022/06/09 14:06:01;;;;;;;2.13;1.80;;;;;;;;;;4991420;28;20457;-66
2022/06/09 14:08:29;;;;;;;2.55;2.05;;;;;;;;;;4989615;28;20432;-66
2022/06/09 14:10:55;;;;;;;2.22;1.80;;;;;;;;;;4989751;28;20340;-66
2022/06/09 14:13:20;;;;;;;2.80;1.90;;;;;;;;;;4989516;28;20399;-67
2022/06/09 14:15:49;;;;;;;3.85;2.10;;;;;;;;;;4989628;28;20364;-66
2022/06/09 14:18:19;;;;;;;2.53;2.00;;;;;;;;;;4991632;28;20507;-67
2022/06/09 14:20:44;;;;;;;2.45;1.90;;;;;;;;;;4991792;28;20331;-68
2022/06/09 14:23:18;;;;;;;2.85;1.85;;;;;;;;;;4991761;28;20298;-66
2022/06/09 14:25:43;;;;;;;2.58;1.73;;;;;;;;;;4977673;28;20144;-67
2022/06/09 14:28:11;;;;;;;1.83;1.40;;;;;;;;;;4970161;28;20420;-66
2022/06/09 14:30:36;;;;;;;2.15;1.75;;;;;;;;;;4971232;28;20138;-66
2022/06/09 14:33:02;;;;;;;2.72;2.13;;;;;;;;;;4970942;28;20509;-67
2022/06/09 14:35:27;;;;;;;5.30;2.10;;;;;;;;;;4969634;28;20479;-67
2022/06/09 14:37:52;;;;;;;3.90;2.67;;;;;;;;;;4970907;28;20100;-67
2022/06/09 14:40:30;;;;;;;5.35;1.70;;;;;;;;;;4969387;28;20519;-67
2022/06/09 14:42:56;;;;;;;4.20;1.92;;;;;;;;;;4970456;28;20428;-66
2022/06/09 14:45:22;;;;;;;2.80;2.20;;;;;;;;;;4971306;28;20428;-66
2022/06/09 14:47:48;;;;;;;3.47;2.38;;;;;;;;;;4970670;28;20491;-68
2022/06/09 14:50:20;;;;;;;2.65;2.22;;;;;;;;;;4968793;28;20484;-67
2022/06/09 14:52:46;;;;;;;2.47;2.00;;;;;;;;;;4969793;28;20451;-67
2022/06/09 14:55:13;;;;;;;2.35;2.10;;;;;;;;;;4968811;28;20436;-68
2022/06/09 14:57:39;;;;;;;4.18;2.30;;;;;;;;;;4969571;28;20380;-69
2022/06/09 15:00:07;;;;;;;2.45;2.00;;;;;;;;;;4969107;28;20033;-68
2022/06/09 15:02:32;;;;;;;2.42;1.85;;;;;;;;;;4970724;28;20416;-69
2022/06/09 15:04:58;;;;;;;4.72;2.17;;;;;;;;;;4969719;28;20494;-69
2022/06/09 15:07:23;;;;;;;2.63;1.85;;;;;;;;;;4970679;28;20379;-68
2022/06/09 15:09:49;;;;;;;2.47;1.80;;;;;;;;;;4970284;28;20444;-69
2022/06/09 15:12:17;;;;;;;4.93;1.75;;;;;;;;;;4970091;28;20430;-69
2022/06/09 15:14:43;;;;;;;2.40;1.73;;;;;;;;;;4970873;28;20368;-69
2022/06/09 15:17:11;;;;;;;2.90;2.30;;;;;;;;;;4970102;28;20434;-68
2022/06/09 15:19:36;;;;;;;4.43;2.20;;;;;;;;;;4969276;28;20352;-68
2022/06/09 15:22:02;;;;;;;3.45;2.63;;;;;;;;;;4970001;28;20034;-68
2022/06/09 15:24:27;;;;;;;4.15;2.30;;;;;;;;;;4984659;28;20425;-69
2022/06/09 15:26:52;;;;;;;3.08;2.17;;;;;;;;;;4968896;28;20353;-68
2022/06/09 15:29:18;;;;;;;4.35;2.20;;;;;;;;;;4968812;28;20348;-68
2022/06/09 15:31:45;;;;;;;5.30;3.25;;;;;;;;;;4970015;28;20560;-68
2022/06/09 15:34:11;;;;;;;8.48;2.95;;;;;;;;;;4968216;28;20390;-68